sensor_id;sensor_type;location;lat;lon;timestamp;temperature;humidity
73750;SHT30;62058;48.406;-4.514;2022-08-21T00:00:38;19.78;66.02
73750;SHT30;62058;48.406;-4.514;2022-08-21T00:03:06;19.78;66.29
73750;SHT30;62058;48.406;-4.514;2022-08-21T00:05:35;19.82;66.84
73750;SHT30;62058;48.406;-4.514;2022-08-21T00:08:01;19.78;65.50
73750;SHT30;62058;48.406;-4.514;2022-08-21T00:10:26;19.82;66.29
73750;SHT30;62058;48.406;-4.514;2022-08-21T00:12:52;19.84;66.28
73750;SHT30;62058;48.406;-4.514;2022-08-21T00:15:27;19.78;67.14
73750;SHT30;62058;48.406;-4.514;2022-08-21T00:17:54;19.71;66.02
73750;SHT30;62058;48.406;-4.514;2022-08-21T00:20:21;19.71;66.51
73750;SHT30;62058;48.406;-4.514;2022-08-21T00:22:46;19.73;66.90
73750;SHT30;62058;48.406;-4.514;2022-08-21T00:25:13;19.77;66.63
73750;SHT30;62058;48.406;-4.514;2022-08-21T00:27:39;19.78;66.65
73750;SHT30;62058;48.406;-4.514;2022-08-21T00:30:08;19.79;66.31
73750;SHT30;62058;48.406;-4.514;2022-08-21T00:32:36;19.79;67.28
73750;SHT30;62058;48.406;-4.514;2022-08-21T00:35:03;19.79;67.18
73750;SHT30;62058;48.406;-4.514;2022-08-21T00:37:28;19.75;66.67
73750;SHT30;62058;48.406;-4.514;2022-08-21T00:39:54;19.73;66.96
73750;SHT30;62058;48.406;-4.514;2022-08-21T00:42:19;19.75;66.13
73750;SHT30;62058;48.406;-4.514;2022-08-21T00:44:47;19.78;66.13
73750;SHT30;62058;48.406;-4.514;2022-08-21T00:47:13;19.74;66.35
73750;SHT30;62058;48.406;-4.514;2022-08-21T00:49:39;19.71;67.52
73750;SHT30;62058;48.406;-4.514;2022-08-21T00:52:08;19.70;67.45
73750;SHT30;62058;48.406;-4.514;2022-08-21T00:54:34;19.68;67.59
73750;SHT30;62058;48.406;-4.514;2022-08-21T00:57:12;19.65;67.66
73750;SHT30;62058;48.406;-4.514;2022-08-21T00:59:40;19.68;67.35
73750;SHT30;62058;48.406;-4.514;2022-08-21T01:02:08;19.71;67.94
73750;SHT30;62058;48.406;-4.514;2022-08-21T01:04:35;19.71;67.09
73750;SHT30;62058;48.406;-4.514;2022-08-21T01:07:01;19.70;67.52
73750;SHT30;62058;48.406;-4.514;2022-08-21T01:09:27;19.71;68.17
73750;SHT30;62058;48.406;-4.514;2022-08-21T01:11:53;19.70;67.94
73750;SHT30;62058;48.406;-4.514;2022-08-21T01:14:19;19.73;67.13
73750;SHT30;62058;48.406;-4.514;2022-08-21T01:16:49;19.70;68.14
73750;SHT30;62058;48.406;-4.514;2022-08-21T01:19:17;19.67;68.07
73750;SHT30;62058;48.406;-4.514;2022-08-21T01:21:43;19.71;68.02
73750;SHT30;62058;48.406;-4.514;2022-08-21T01:24:09;19.74;67.79
73750;SHT30;62058;48.406;-4.514;2022-08-21T01:26:35;19.73;67.77
73750;SHT30;62058;48.406;-4.514;2022-08-21T01:29:26;19.74;67.67
73750;SHT30;62058;48.406;-4.514;2022-08-21T01:31:52;19.74;67.46
73750;SHT30;62058;48.406;-4.514;2022-08-21T01:34:18;19.74;67.90
73750;SHT30;62058;48.406;-4.514;2022-08-21T01:36:45;19.75;67.50
73750;SHT30;62058;48.406;-4.514;2022-08-21T01:39:10;19.75;67.66
73750;SHT30;62058;48.406;-4.514;2022-08-21T01:41:36;19.73;68.27
73750;SHT30;62058;48.406;-4.514;2022-08-21T01:44:01;19.73;68.26
73750;SHT30;62058;48.406;-4.514;2022-08-21T01:46:27;19.77;68.03
73750;SHT30;62058;48.406;-4.514;2022-08-21T01:48:52;19.75;68.19
73750;SHT30;62058;48.406;-4.514;2022-08-21T01:51:18;19.74;68.50
73750;SHT30;62058;48.406;-4.514;2022-08-21T01:53:43;19.75;68.56
73750;SHT30;62058;48.406;-4.514;2022-08-21T01:56:12;19.74;68.53
73750;SHT30;62058;48.406;-4.514;2022-08-21T01:58:41;19.75;68.55
73750;SHT30;62058;48.406;-4.514;2022-08-21T02:01:07;19.74;68.36
73750;SHT30;62058;48.406;-4.514;2022-08-21T02:03:34;19.70;68.74
73750;SHT30;62058;48.406;-4.514;2022-08-21T02:06:00;19.70;68.29
73750;SHT30;62058;48.406;-4.514;2022-08-21T02:08:27;19.68;68.58
73750;SHT30;62058;48.406;-4.514;2022-08-21T02:10:53;19.73;68.33
73750;SHT30;62058;48.406;-4.514;2022-08-21T02:13:19;19.68;68.91
73750;SHT30;62058;48.406;-4.514;2022-08-21T02:15:45;19.67;68.64
73750;SHT30;62058;48.406;-4.514;2022-08-21T02:18:11;19.64;69.30
73750;SHT30;62058;48.406;-4.514;2022-08-21T02:20:42;19.61;69.46
73750;SHT30;62058;48.406;-4.514;2022-08-21T02:23:09;19.60;68.87
73750;SHT30;62058;48.406;-4.514;2022-08-21T02:25:35;19.65;68.36
73750;SHT30;62058;48.406;-4.514;2022-08-21T02:28:07;19.60;68.99
73750;SHT30;62058;48.406;-4.514;2022-08-21T02:30:36;19.64;69.54
73750;SHT30;62058;48.406;-4.514;2022-08-21T02:33:03;19.60;69.29
73750;SHT30;62058;48.406;-4.514;2022-08-21T02:35:29;19.61;68.71
73750;SHT30;62058;48.406;-4.514;2022-08-21T02:38:01;19.64;68.31
73750;SHT30;62058;48.406;-4.514;2022-08-21T02:40:30;19.68;68.76
73750;SHT30;62058;48.406;-4.514;2022-08-21T02:42:57;19.70;68.89
73750;SHT30;62058;48.406;-4.514;2022-08-21T02:45:24;19.70;68.58
73750;SHT30;62058;48.406;-4.514;2022-08-21T02:47:54;19.70;68.78
73750;SHT30;62058;48.406;-4.514;2022-08-21T02:50:22;19.70;68.36
73750;SHT30;62058;48.406;-4.514;2022-08-21T02:52:48;19.70;67.78
73750;SHT30;62058;48.406;-4.514;2022-08-21T02:55:14;19.74;68.27
73750;SHT30;62058;48.406;-4.514;2022-08-21T02:57:40;19.73;68.55
73750;SHT30;62058;48.406;-4.514;2022-08-21T03:00:07;19.75;68.47
73750;SHT30;62058;48.406;-4.514;2022-08-21T03:02:33;19.73;68.66
73750;SHT30;62058;48.406;-4.514;2022-08-21T03:04:59;19.75;68.67
73750;SHT30;62058;48.406;-4.514;2022-08-21T03:07:25;19.77;69.00
73750;SHT30;62058;48.406;-4.514;2022-08-21T03:09:51;19.77;68.63
73750;SHT30;62058;48.406;-4.514;2022-08-21T03:12:17;19.78;69.12
73750;SHT30;62058;48.406;-4.514;2022-08-21T03:14:43;19.78;69.16
73750;SHT30;62058;48.406;-4.514;2022-08-21T03:17:08;19.74;69.26
73750;SHT30;62058;48.406;-4.514;2022-08-21T03:19:34;19.75;68.54
73750;SHT30;62058;48.406;-4.514;2022-08-21T03:21:59;19.71;69.54
73750;SHT30;62058;48.406;-4.514;2022-08-21T03:24:25;19.75;69.37
73750;SHT30;62058;48.406;-4.514;2022-08-21T03:26:51;19.74;69.86
73750;SHT30;62058;48.406;-4.514;2022-08-21T03:29:16;19.78;69.61
73750;SHT30;62058;48.406;-4.514;2022-08-21T03:31:42;19.81;70.53
73750;SHT30;62058;48.406;-4.514;2022-08-21T03:34:07;19.81;70.63
73750;SHT30;62058;48.406;-4.514;2022-08-21T03:36:33;19.77;71.61
73750;SHT30;62058;48.406;-4.514;2022-08-21T03:38:58;19.77;72.03
73750;SHT30;62058;48.406;-4.514;2022-08-21T03:41:23;19.77;69.74
73750;SHT30;62058;48.406;-4.514;2022-08-21T03:43:49;19.71;70.85
73750;SHT30;62058;48.406;-4.514;2022-08-21T03:46:14;19.67;73.54
73750;SHT30;62058;48.406;-4.514;2022-08-21T03:48:40;19.64;73.81
73750;SHT30;62058;48.406;-4.514;2022-08-21T03:51:06;19.65;72.84
73750;SHT30;62058;48.406;-4.514;2022-08-21T03:53:32;19.67;71.37
73750;SHT30;62058;48.406;-4.514;2022-08-21T03:55:58;19.65;72.45
73750;SHT30;62058;48.406;-4.514;2022-08-21T03:58:25;19.64;73.34
73750;SHT30;62058;48.406;-4.514;2022-08-21T04:00:56;19.63;73.33
73750;SHT30;62058;48.406;-4.514;2022-08-21T04:03:23;19.63;72.59
73750;SHT30;62058;48.406;-4.514;2022-08-21T04:05:48;19.63;73.35
73750;SHT30;62058;48.406;-4.514;2022-08-21T04:08:16;19.61;73.03
73750;SHT30;62058;48.406;-4.514;2022-08-21T04:10:45;19.60;73.09
73750;SHT30;62058;48.406;-4.514;2022-08-21T04:13:11;19.57;74.68
73750;SHT30;62058;48.406;-4.514;2022-08-21T04:15:37;19.57;73.70
73750;SHT30;62058;48.406;-4.514;2022-08-21T04:18:03;19.57;72.80
73750;SHT30;62058;48.406;-4.514;2022-08-21T04:20:29;19.51;74.44
73750;SHT30;62058;48.406;-4.514;2022-08-21T04:22:54;19.51;73.68
73750;SHT30;62058;48.406;-4.514;2022-08-21T04:25:22;19.49;73.68
73750;SHT30;62058;48.406;-4.514;2022-08-21T04:27:48;19.51;72.78
73750;SHT30;62058;48.406;-4.514;2022-08-21T04:30:14;19.47;73.84
73750;SHT30;62058;48.406;-4.514;2022-08-21T04:32:45;19.46;74.46
73750;SHT30;62058;48.406;-4.514;2022-08-21T04:35:12;19.46;72.00
73750;SHT30;62058;48.406;-4.514;2022-08-21T04:37:38;19.43;73.46
73750;SHT30;62058;48.406;-4.514;2022-08-21T04:40:05;19.43;73.55
73750;SHT30;62058;48.406;-4.514;2022-08-21T04:42:32;19.43;73.78
73750;SHT30;62058;48.406;-4.514;2022-08-21T04:44:58;19.43;72.70
73750;SHT30;62058;48.406;-4.514;2022-08-21T04:47:24;19.43;73.12
73750;SHT30;62058;48.406;-4.514;2022-08-21T04:49:50;19.44;73.95
73750;SHT30;62058;48.406;-4.514;2022-08-21T04:52:19;19.43;72.69
73750;SHT30;62058;48.406;-4.514;2022-08-21T04:54:47;19.43;72.04
73750;SHT30;62058;48.406;-4.514;2022-08-21T04:57:14;19.44;73.08
73750;SHT30;62058;48.406;-4.514;2022-08-21T04:59:43;19.40;73.21
73750;SHT30;62058;48.406;-4.514;2022-08-21T05:02:11;19.41;73.24
73750;SHT30;62058;48.406;-4.514;2022-08-21T05:04:43;19.43;72.93
73750;SHT30;62058;48.406;-4.514;2022-08-21T05:07:14;19.40;73.14
73750;SHT30;62058;48.406;-4.514;2022-08-21T05:09:41;19.41;72.77
73750;SHT30;62058;48.406;-4.514;2022-08-21T05:12:07;19.38;73.91
73750;SHT30;62058;48.406;-4.514;2022-08-21T05:14:33;19.40;73.68
73750;SHT30;62058;48.406;-4.514;2022-08-21T05:16:58;19.40;73.64
73750;SHT30;62058;48.406;-4.514;2022-08-21T05:19:24;19.41;73.87
73750;SHT30;62058;48.406;-4.514;2022-08-21T05:21:51;19.38;73.78
73750;SHT30;62058;48.406;-4.514;2022-08-21T05:24:17;19.40;73.91
73750;SHT30;62058;48.406;-4.514;2022-08-21T05:26:43;19.41;73.81
73750;SHT30;62058;48.406;-4.514;2022-08-21T05:29:10;19.44;72.44
73750;SHT30;62058;48.406;-4.514;2022-08-21T05:31:36;19.47;72.20
73750;SHT30;62058;48.406;-4.514;2022-08-21T05:34:02;19.47;73.30
73750;SHT30;62058;48.406;-4.514;2022-08-21T05:36:28;19.47;73.19
73750;SHT30;62058;48.406;-4.514;2022-08-21T05:38:53;19.47;73.32
73750;SHT30;62058;48.406;-4.514;2022-08-21T05:41:19;19.44;72.90
73750;SHT30;62058;48.406;-4.514;2022-08-21T05:43:44;19.46;73.02
73750;SHT30;62058;48.406;-4.514;2022-08-21T05:46:09;19.44;72.55
73750;SHT30;62058;48.406;-4.514;2022-08-21T05:48:36;19.46;72.79
73750;SHT30;62058;48.406;-4.514;2022-08-21T05:51:09;19.47;73.57
73750;SHT30;62058;48.406;-4.514;2022-08-21T05:53:36;19.49;72.84
73750;SHT30;62058;48.406;-4.514;2022-08-21T05:56:02;19.50;73.60
73750;SHT30;62058;48.406;-4.514;2022-08-21T05:58:29;19.50;73.00
73750;SHT30;62058;48.406;-4.514;2022-08-21T06:00:55;19.51;72.30
73750;SHT30;62058;48.406;-4.514;2022-08-21T06:03:27;19.57;72.45
73750;SHT30;62058;48.406;-4.514;2022-08-21T06:05:53;19.58;72.39
73750;SHT30;62058;48.406;-4.514;2022-08-21T06:08:20;19.61;72.41
73750;SHT30;62058;48.406;-4.514;2022-08-21T06:10:47;19.60;71.64
73750;SHT30;62058;48.406;-4.514;2022-08-21T06:13:13;19.61;71.71
73750;SHT30;62058;48.406;-4.514;2022-08-21T06:15:39;19.64;71.87
73750;SHT30;62058;48.406;-4.514;2022-08-21T06:18:05;19.68;71.72
73750;SHT30;62058;48.406;-4.514;2022-08-21T06:20:31;19.74;71.25
73750;SHT30;62058;48.406;-4.514;2022-08-21T06:22:57;19.75;71.23
73750;SHT30;62058;48.406;-4.514;2022-08-21T06:25:25;19.77;72.13
73750;SHT30;62058;48.406;-4.514;2022-08-21T06:27:50;19.78;71.84
73750;SHT30;62058;48.406;-4.514;2022-08-21T06:30:16;19.79;72.09
73750;SHT30;62058;48.406;-4.514;2022-08-21T06:32:42;19.85;71.88
73750;SHT30;62058;48.406;-4.514;2022-08-21T06:35:08;19.89;71.03
73750;SHT30;62058;48.406;-4.514;2022-08-21T06:37:34;19.91;72.51
73750;SHT30;62058;48.406;-4.514;2022-08-21T06:39:59;19.96;71.62
73750;SHT30;62058;48.406;-4.514;2022-08-21T06:42:25;19.96;72.01
73750;SHT30;62058;48.406;-4.514;2022-08-21T06:44:53;19.98;71.04
73750;SHT30;62058;48.406;-4.514;2022-08-21T06:47:18;19.98;71.51
73750;SHT30;62058;48.406;-4.514;2022-08-21T06:49:43;19.95;71.36
73750;SHT30;62058;48.406;-4.514;2022-08-21T06:52:12;19.94;71.52
73750;SHT30;62058;48.406;-4.514;2022-08-21T06:54:38;19.92;71.84
73750;SHT30;62058;48.406;-4.514;2022-08-21T06:57:04;19.92;72.11
73750;SHT30;62058;48.406;-4.514;2022-08-21T06:59:30;19.91;71.94
73750;SHT30;62058;48.406;-4.514;2022-08-21T07:01:58;19.89;71.98
73750;SHT30;62058;48.406;-4.514;2022-08-21T07:04:23;19.86;71.53
73750;SHT30;62058;48.406;-4.514;2022-08-21T07:06:49;19.86;72.06
73750;SHT30;62058;48.406;-4.514;2022-08-21T07:09:15;19.77;72.06
73750;SHT30;62058;48.406;-4.514;2022-08-21T07:11:40;19.73;72.52
73750;SHT30;62058;48.406;-4.514;2022-08-21T07:14:06;19.64;73.52
73750;SHT30;62058;48.406;-4.514;2022-08-21T07:16:31;19.54;74.79
73750;SHT30;62058;48.406;-4.514;2022-08-21T07:18:57;19.51;74.53
73750;SHT30;62058;48.406;-4.514;2022-08-21T07:21:22;19.51;75.77
73750;SHT30;62058;48.406;-4.514;2022-08-21T07:23:50;19.51;75.21
73750;SHT30;62058;48.406;-4.514;2022-08-21T07:26:18;19.50;75.68
73750;SHT30;62058;48.406;-4.514;2022-08-21T07:28:46;19.53;73.72
73750;SHT30;62058;48.406;-4.514;2022-08-21T07:31:15;19.55;75.55
73750;SHT30;62058;48.406;-4.514;2022-08-21T07:33:41;19.50;75.48
73750;SHT30;62058;48.406;-4.514;2022-08-21T07:36:08;19.54;75.55
73750;SHT30;62058;48.406;-4.514;2022-08-21T07:38:39;19.58;76.19
73750;SHT30;62058;48.406;-4.514;2022-08-21T07:41:17;19.58;76.60
73750;SHT30;62058;48.406;-4.514;2022-08-21T07:43:44;19.58;75.25
73750;SHT30;62058;48.406;-4.514;2022-08-21T07:46:09;19.58;76.73
73750;SHT30;62058;48.406;-4.514;2022-08-21T07:48:36;19.57;75.42
73750;SHT30;62058;48.406;-4.514;2022-08-21T07:51:06;19.58;78.13
73750;SHT30;62058;48.406;-4.514;2022-08-21T07:53:31;19.64;77.69
73750;SHT30;62058;48.406;-4.514;2022-08-21T07:55:57;19.71;75.68
73750;SHT30;62058;48.406;-4.514;2022-08-21T07:58:23;19.75;77.41
73750;SHT30;62058;48.406;-4.514;2022-08-21T08:00:48;19.77;77.65
73750;SHT30;62058;48.406;-4.514;2022-08-21T08:03:14;19.81;77.35
73750;SHT30;62058;48.406;-4.514;2022-08-21T08:05:40;19.86;77.66
73750;SHT30;62058;48.406;-4.514;2022-08-21T08:08:05;19.92;77.53
73750;SHT30;62058;48.406;-4.514;2022-08-21T08:10:32;20.01;76.89
73750;SHT30;62058;48.406;-4.514;2022-08-21T08:12:57;20.04;77.07
73750;SHT30;62058;48.406;-4.514;2022-08-21T08:15:24;20.11;77.47
73750;SHT30;62058;48.406;-4.514;2022-08-21T08:17:50;20.19;77.40
73750;SHT30;62058;48.406;-4.514;2022-08-21T08:20:16;20.26;76.86
73750;SHT30;62058;48.406;-4.514;2022-08-21T08:22:44;20.38;76.94
73750;SHT30;62058;48.406;-4.514;2022-08-21T08:25:11;20.52;75.73
73750;SHT30;62058;48.406;-4.514;2022-08-21T08:27:37;20.72;75.93
73750;SHT30;62058;48.406;-4.514;2022-08-21T08:30:05;20.89;74.38
73750;SHT30;62058;48.406;-4.514;2022-08-21T08:32:30;20.96;76.40
73750;SHT30;62058;48.406;-4.514;2022-08-21T08:34:56;21.00;74.76
73750;SHT30;62058;48.406;-4.514;2022-08-21T08:37:21;21.04;75.75
73750;SHT30;62058;48.406;-4.514;2022-08-21T08:39:47;21.15;75.43
73750;SHT30;62058;48.406;-4.514;2022-08-21T08:42:13;21.31;74.85
73750;SHT30;62058;48.406;-4.514;2022-08-21T08:44:43;21.44;74.32
73750;SHT30;62058;48.406;-4.514;2022-08-21T08:47:13;21.62;73.04
73750;SHT30;62058;48.406;-4.514;2022-08-21T08:49:46;21.71;73.78
73750;SHT30;62058;48.406;-4.514;2022-08-21T08:52:20;21.81;74.43
73750;SHT30;62058;48.406;-4.514;2022-08-21T08:54:57;21.95;73.06
73750;SHT30;62058;48.406;-4.514;2022-08-21T08:57:26;22.05;72.65
73750;SHT30;62058;48.406;-4.514;2022-08-21T08:59:54;22.17;72.33
73750;SHT30;62058;48.406;-4.514;2022-08-21T09:02:21;22.30;71.64
73750;SHT30;62058;48.406;-4.514;2022-08-21T09:04:49;22.43;71.54
73750;SHT30;62058;48.406;-4.514;2022-08-21T09:10:22;22.39;71.60
73750;SHT30;62058;48.406;-4.514;2022-08-21T09:12:59;22.42;72.60
73750;SHT30;62058;48.406;-4.514;2022-08-21T09:20:56;22.74;69.82
73750;SHT30;62058;48.406;-4.514;2022-08-21T09:26:25;22.90;68.99
73750;SHT30;62058;48.406;-4.514;2022-08-21T09:28:54;23.04;67.11
73750;SHT30;62058;48.406;-4.514;2022-08-21T09:33:49;23.45;68.02
73750;SHT30;62058;48.406;-4.514;2022-08-21T09:36:41;23.63;67.62
73750;SHT30;62058;48.406;-4.514;2022-08-21T09:39:10;23.76;65.97
73750;SHT30;62058;48.406;-4.514;2022-08-21T09:41:37;23.86;66.94
73750;SHT30;62058;48.406;-4.514;2022-08-21T09:44:05;23.95;64.13
73750;SHT30;62058;48.406;-4.514;2022-08-21T09:46:31;24.00;65.67
73750;SHT30;62058;48.406;-4.514;2022-08-21T09:49:00;24.09;65.04
73750;SHT30;62058;48.406;-4.514;2022-08-21T09:54:10;24.27;64.94
73750;SHT30;62058;48.406;-4.514;2022-08-21T09:59:54;24.36;63.90
73750;SHT30;62058;48.406;-4.514;2022-08-21T10:02:28;24.33;63.77
73750;SHT30;62058;48.406;-4.514;2022-08-21T10:04:59;24.33;64.00
73750;SHT30;62058;48.406;-4.514;2022-08-21T10:07:28;24.26;63.83
73750;SHT30;62058;48.406;-4.514;2022-08-21T10:10:07;24.20;65.54
73750;SHT30;62058;48.406;-4.514;2022-08-21T10:15:51;23.95;64.31
73750;SHT30;62058;48.406;-4.514;2022-08-21T10:21:23;23.98;65.47
73750;SHT30;62058;48.406;-4.514;2022-08-21T10:29:45;24.64;62.45
73750;SHT30;62058;48.406;-4.514;2022-08-21T10:35:14;25.04;62.26
73750;SHT30;62058;48.406;-4.514;2022-08-21T10:38:05;25.25;62.45
73750;SHT30;62058;48.406;-4.514;2022-08-21T10:40:51;25.52;61.98
73750;SHT30;62058;48.406;-4.514;2022-08-21T10:48:56;25.52;61.76
73750;SHT30;62058;48.406;-4.514;2022-08-21T10:57:09;25.08;61.97
73750;SHT30;62058;48.406;-4.514;2022-08-21T10:59:47;24.90;62.28
73750;SHT30;62058;48.406;-4.514;2022-08-21T11:02:22;24.64;62.85
73750;SHT30;62058;48.406;-4.514;2022-08-21T11:05:35;24.49;64.03
73750;SHT30;62058;48.406;-4.514;2022-08-21T11:08:10;24.26;64.23
73750;SHT30;62058;48.406;-4.514;2022-08-21T11:10:50;23.89;64.92
73750;SHT30;62058;48.406;-4.514;2022-08-21T11:13:44;23.61;66.08
73750;SHT30;62058;48.406;-4.514;2022-08-21T11:22:22;22.29;74.00
73750;SHT30;62058;48.406;-4.514;2022-08-21T11:27:41;21.85;73.04
73750;SHT30;62058;48.406;-4.514;2022-08-21T11:30:08;21.92;71.69
73750;SHT30;62058;48.406;-4.514;2022-08-21T11:38:39;22.86;68.85
73750;SHT30;62058;48.406;-4.514;2022-08-21T11:43:57;23.42;68.55
73750;SHT30;62058;48.406;-4.514;2022-08-21T11:46:28;23.85;69.37
73750;SHT30;62058;48.406;-4.514;2022-08-21T11:52:31;24.81;63.53
73750;SHT30;62058;48.406;-4.514;2022-08-21T11:55:14;25.05;62.93
73750;SHT30;62058;48.406;-4.514;2022-08-21T11:57:55;25.26;62.33
73750;SHT30;62058;48.406;-4.514;2022-08-21T12:00:32;25.19;60.14
73750;SHT30;62058;48.406;-4.514;2022-08-21T12:03:20;25.11;60.39
73750;SHT30;62058;48.406;-4.514;2022-08-21T12:06:02;25.11;62.16
73750;SHT30;62058;48.406;-4.514;2022-08-21T12:08:33;24.78;61.25
73750;SHT30;62058;48.406;-4.514;2022-08-21T12:13:29;24.39;61.59
73750;SHT30;62058;48.406;-4.514;2022-08-21T12:16:11;24.54;60.72
73750;SHT30;62058;48.406;-4.514;2022-08-21T12:18:37;24.61;61.93
73750;SHT30;62058;48.406;-4.514;2022-08-21T12:21:27;24.75;60.64
73750;SHT30;62058;48.406;-4.514;2022-08-21T12:24:17;25.12;60.98
73750;SHT30;62058;48.406;-4.514;2022-08-21T12:26:56;25.50;60.95
73750;SHT30;62058;48.406;-4.514;2022-08-21T12:34:50;26.52;57.63
73750;SHT30;62058;48.406;-4.514;2022-08-21T12:40:03;26.87;52.59
73750;SHT30;62058;48.406;-4.514;2022-08-21T12:42:36;26.87;53.96
73750;SHT30;62058;48.406;-4.514;2022-08-21T12:45:11;26.64;54.01
73750;SHT30;62058;48.406;-4.514;2022-08-21T12:47:52;26.62;54.80
73750;SHT30;62058;48.406;-4.514;2022-08-21T12:50:33;26.75;53.65
73750;SHT30;62058;48.406;-4.514;2022-08-21T12:53:03;27.00;52.02
73750;SHT30;62058;48.406;-4.514;2022-08-21T12:55:32;27.16;51.14
73750;SHT30;62058;48.406;-4.514;2022-08-21T12:57:59;27.30;50.90
73750;SHT30;62058;48.406;-4.514;2022-08-21T13:00:26;27.70;50.79
73750;SHT30;62058;48.406;-4.514;2022-08-21T13:02:53;28.35;52.72
73750;SHT30;62058;48.406;-4.514;2022-08-21T13:05:31;28.56;46.19
73750;SHT30;62058;48.406;-4.514;2022-08-21T13:07:57;28.48;46.70
73750;SHT30;62058;48.406;-4.514;2022-08-21T13:10:26;28.71;46.29
73750;SHT30;62058;48.406;-4.514;2022-08-21T13:13:01;28.64;48.38
73750;SHT30;62058;48.406;-4.514;2022-08-21T13:15:30;28.59;46.34
73750;SHT30;62058;48.406;-4.514;2022-08-21T13:17:57;28.58;47.87
73750;SHT30;62058;48.406;-4.514;2022-08-21T13:20:31;28.85;49.16
73750;SHT30;62058;48.406;-4.514;2022-08-21T13:23:23;28.74;46.84
73750;SHT30;62058;48.406;-4.514;2022-08-21T13:25:47;28.28;47.00
73750;SHT30;62058;48.406;-4.514;2022-08-21T13:28:12;28.45;49.28
73750;SHT30;62058;48.406;-4.514;2022-08-21T13:30:52;28.79;48.68
73750;SHT30;62058;48.406;-4.514;2022-08-21T13:33:21;28.75;48.47
73750;SHT30;62058;48.406;-4.514;2022-08-21T13:35:49;28.55;50.05
73750;SHT30;62058;48.406;-4.514;2022-08-21T13:38:19;27.98;50.44
73750;SHT30;62058;48.406;-4.514;2022-08-21T13:40:51;27.59;49.74
73750;SHT30;62058;48.406;-4.514;2022-08-21T13:43:21;27.49;50.45
73750;SHT30;62058;48.406;-4.514;2022-08-21T13:45:51;27.47;51.17
73750;SHT30;62058;48.406;-4.514;2022-08-21T13:48:17;27.25;52.12
73750;SHT30;62058;48.406;-4.514;2022-08-21T13:50:44;27.23;52.10
73750;SHT30;62058;48.406;-4.514;2022-08-21T13:55:54;27.43;52.47
73750;SHT30;62058;48.406;-4.514;2022-08-21T13:58:30;27.36;51.84
73750;SHT30;62058;48.406;-4.514;2022-08-21T14:01:00;27.40;53.23
73750;SHT30;62058;48.406;-4.514;2022-08-21T14:03:42;27.35;52.48
73750;SHT30;62058;48.406;-4.514;2022-08-21T14:06:18;27.28;52.07
73750;SHT30;62058;48.406;-4.514;2022-08-21T14:08:56;27.08;53.54
73750;SHT30;62058;48.406;-4.514;2022-08-21T14:11:23;27.12;54.26
73750;SHT30;62058;48.406;-4.514;2022-08-21T14:13:56;27.00;52.18
73750;SHT30;62058;48.406;-4.514;2022-08-21T14:16:26;26.95;52.41
73750;SHT30;62058;48.406;-4.514;2022-08-21T14:21:42;26.72;53.94
73750;SHT30;62058;48.406;-4.514;2022-08-21T14:24:27;26.69;54.27
73750;SHT30;62058;48.406;-4.514;2022-08-21T14:27:04;26.38;53.45
73750;SHT30;62058;48.406;-4.514;2022-08-21T14:29:36;26.21;54.86
73750;SHT30;62058;48.406;-4.514;2022-08-21T14:32:30;26.16;54.72
73750;SHT30;62058;48.406;-4.514;2022-08-21T14:34:56;26.26;53.91
73750;SHT30;62058;48.406;-4.514;2022-08-21T14:37:22;26.31;54.31
73750;SHT30;62058;48.406;-4.514;2022-08-21T14:39:48;26.18;53.79
73750;SHT30;62058;48.406;-4.514;2022-08-21T14:42:13;26.21;54.26
73750;SHT30;62058;48.406;-4.514;2022-08-21T14:44:39;26.04;53.97
73750;SHT30;62058;48.406;-4.514;2022-08-21T14:47:04;26.10;55.11
73750;SHT30;62058;48.406;-4.514;2022-08-21T14:49:34;26.26;55.19
73750;SHT30;62058;48.406;-4.514;2022-08-21T14:52:00;26.31;54.38
73750;SHT30;62058;48.406;-4.514;2022-08-21T14:54:27;26.34;54.66
73750;SHT30;62058;48.406;-4.514;2022-08-21T14:56:53;26.34;53.94
73750;SHT30;62058;48.406;-4.514;2022-08-21T14:59:20;26.34;54.58
73750;SHT30;62058;48.406;-4.514;2022-08-21T15:01:46;26.30;55.45
73750;SHT30;62058;48.406;-4.514;2022-08-21T15:04:15;26.14;54.00
73750;SHT30;62058;48.406;-4.514;2022-08-21T15:06:41;26.13;54.69
73750;SHT30;62058;48.406;-4.514;2022-08-21T15:09:06;25.92;54.62
73750;SHT30;62058;48.406;-4.514;2022-08-21T15:11:33;25.79;55.40
73750;SHT30;62058;48.406;-4.514;2022-08-21T15:14:02;25.79;54.91
73750;SHT30;62058;48.406;-4.514;2022-08-21T15:16:29;25.77;55.56
73750;SHT30;62058;48.406;-4.514;2022-08-21T15:18:59;25.66;56.13
73750;SHT30;62058;48.406;-4.514;2022-08-21T15:21:25;25.47;56.61
73750;SHT30;62058;48.406;-4.514;2022-08-21T15:23:50;25.47;56.93
73750;SHT30;62058;48.406;-4.514;2022-08-21T15:26:22;25.45;56.75
73750;SHT30;62058;48.406;-4.514;2022-08-21T15:28:48;25.50;56.99
73750;SHT30;62058;48.406;-4.514;2022-08-21T15:31:13;25.42;57.19
73750;SHT30;62058;48.406;-4.514;2022-08-21T15:33:38;25.25;57.60
73750;SHT30;62058;48.406;-4.514;2022-08-21T15:36:04;25.05;58.06
73750;SHT30;62058;48.406;-4.514;2022-08-21T15:38:32;25.12;58.63
73750;SHT30;62058;48.406;-4.514;2022-08-21T15:40:57;25.31;58.03
73750;SHT30;62058;48.406;-4.514;2022-08-21T15:43:41;25.47;57.99
73750;SHT30;62058;48.406;-4.514;2022-08-21T15:46:10;25.63;57.44
73750;SHT30;62058;48.406;-4.514;2022-08-21T15:48:37;25.66;57.70
73750;SHT30;62058;48.406;-4.514;2022-08-21T15:51:02;25.61;57.64
73750;SHT30;62058;48.406;-4.514;2022-08-21T15:53:28;25.39;57.69
73750;SHT30;62058;48.406;-4.514;2022-08-21T15:55:53;25.42;58.08
73750;SHT30;62058;48.406;-4.514;2022-08-21T15:58:19;25.45;58.16
73750;SHT30;62058;48.406;-4.514;2022-08-21T16:00:46;25.42;58.25
73750;SHT30;62058;48.406;-4.514;2022-08-21T16:03:16;25.25;58.61
73750;SHT30;62058;48.406;-4.514;2022-08-21T16:05:45;25.12;58.84
73750;SHT30;62058;48.406;-4.514;2022-08-21T16:08:13;25.07;59.30
73750;SHT30;62058;48.406;-4.514;2022-08-21T16:10:39;24.98;59.80
73750;SHT30;62058;48.406;-4.514;2022-08-21T16:13:10;24.82;59.92
73750;SHT30;62058;48.406;-4.514;2022-08-21T16:15:37;24.72;60.45
73750;SHT30;62058;48.406;-4.514;2022-08-21T16:18:02;24.71;60.78
73750;SHT30;62058;48.406;-4.514;2022-08-21T16:20:31;24.68;60.95
73750;SHT30;62058;48.406;-4.514;2022-08-21T16:22:57;24.54;60.98
73750;SHT30;62058;48.406;-4.514;2022-08-21T16:25:23;24.46;61.76
73750;SHT30;62058;48.406;-4.514;2022-08-21T16:27:52;24.37;62.05
73750;SHT30;62058;48.406;-4.514;2022-08-21T16:30:19;24.36;62.54
73750;SHT30;62058;48.406;-4.514;2022-08-21T16:32:46;24.31;61.35
73750;SHT30;62058;48.406;-4.514;2022-08-21T16:35:14;24.20;62.27
73750;SHT30;62058;48.406;-4.514;2022-08-21T16:37:41;24.05;63.08
73750;SHT30;62058;48.406;-4.514;2022-08-21T16:40:07;23.89;63.77
73750;SHT30;62058;48.406;-4.514;2022-08-21T16:42:35;23.73;64.66
73750;SHT30;62058;48.406;-4.514;2022-08-21T16:45:02;23.75;64.01
73750;SHT30;62058;48.406;-4.514;2022-08-21T16:47:31;23.73;63.90